• Join FlightAware (Why Join?)
  • Login
  • US Flag 
04:22AM EST


 

Airport Tracker/Info


-or-


 

Live Flight TrackerFlight Track Log ✈ JBU721 ✈ 30-Apr-2014 ✈ KBOS - KPBI

Flight Track Log - Related Links

Times and Time Zones

All times are in EDT time to prevent confusion due to time zone crossing. See the JBU721 flight status page for this flight to view local times or setup timezone preferences in your user account.

Time Position Orientation Groundspeed Altitude Reporting Facility
EDT Latitude Longitude Course Direction KTS MPH feet Rate Location/Type
06:08AM 42.3667 -70.9833 208° Southwest 121 139 900  Level KA90
06:09AM 42.3717 -70.9250 83° East 149 171 2,400 1,966 Climbing Boston Center
06:10AM 42.3864 -70.8392 77° East 229 264 4,800 2,579 Climbing Boston Center
06:11AM 42.3825 -70.7481 93° East 248 285 7,600 2,705 Climbing Boston Center
06:12AM 42.3181 -70.6953 149° Southeast 271 312 10,300 1,934 Climbing Boston Center
06:13AM 41.7374 -71.4562 208° Southwest  Level Estimated
06:13AM 42.2331 -70.6544 160° South 301 346 11,500  Level Boston Center
06:14AM 42.1322 -70.6192 165° South 349 402 13,800 2,262 Climbing Boston Center
06:15AM 42.0319 -70.6625 198° South 383 441 16,100 1,983 Climbing Boston Center
06:16AM 41.9314 -70.7064 198° South 383 441 17,800 2,083 Climbing Boston Center
06:17AM 41.8111 -70.7658 200° South 384 442 20,300 2,066 Climbing Boston Center
06:18AM 41.7167 -70.8378 210° Southwest 387 445 22,000 1,525 Climbing Boston Center
06:19AM 41.6194 -70.9117 210° Southwest 396 456 23,400 1,587 Climbing Boston Center
06:20AM 41.5272 -70.9972 215° Southwest 406 467 25,200 1,488 Climbing Boston Center
06:21AM 41.4547 -71.1106 230° Southwest 402 463 26,400 984 Climbing Boston Center
06:22AM 41.3822 -71.2342 232° Southwest 403 464 27,200 787 Climbing Boston Center
06:23AM 41.3078 -71.3542 230° Southwest 416 479 28,000 1,033 Climbing Boston Center
06:24AM 41.2342 -71.4697 230° Southwest 425 489 29,300 1,328 Climbing Boston Center
06:25AM 41.1569 -71.5956 231° Southwest 424 488 30,700 1,537 Climbing Boston Center
06:26AM 41.0847 -71.7125 231° Southwest 415 478 32,400 1,240 Climbing Boston Center
06:27AM 41.0142 -71.8256 230° Southwest 404 465 33,200 984 Climbing Boston Center
06:28AM 40.9419 -71.9400 230° Southwest 403 464 34,400 1,033 Climbing Boston Center
06:29AM 40.8719 -72.0511 230° Southwest 398 458 35,300 787 Climbing Boston Center
06:30AM 40.8019 -72.1608 230° Southwest 395 455 36,000 344 Climbing Boston Center
06:31AM 40.7342 -72.2683 230° Southwest 387 445 36,000  Level Boston Center
06:32AM 40.6550 -72.3914 230° Southwest 388 447 36,000  Level Boston Center
06:33AM 40.5856 -72.5011 230° Southwest 388 447 36,000  Level Boston Center
06:34AM 40.5161 -72.6097 230° Southwest 389 448 36,000  Level Boston Center
06:35AM 40.4458 -72.7183 230° Southwest 389 448 36,000  Level Boston Center
06:36AM 40.3767 -72.8286 231° Southwest 390 449 36,000  Level Boston Center
06:37AM 40.3061 -72.9367 229° Southwest 390 449 36,000  Level Boston Center
06:38AM 40.2361 -73.0453 230° Southwest 391 450 36,000  Level Boston Center
06:39AM 40.1575 -73.1647 229° Southwest 391 450 36,000  Level Boston Center
06:40AM 40.0853 -73.2731 229° Southwest 393 452 36,000  Level Boston Center
06:41AM 40.0008 -73.3664 220° Southwest 397 457 36,000  Level Boston Center
06:42AM 39.9258 -73.4497 220° Southwest 398 458 36,000  Level Boston Center
06:43AM 39.8419 -73.5436 221° Southwest 398 458 36,000  Level Boston Center
06:44AM 39.7586 -73.6367 221° Southwest 397 457 36,000  Level Boston Center
06:45AM 39.7067 -73.6928 220° Southwest 402 463 36,000  Level Washington Center
06:46AM 39.6206 -73.7839 219° Southwest 402 463 36,000 -51 Level Washington Center
06:47AM 39.5408 -73.8775 222° Southwest 396 456 35,900  Descending Washington Center
06:48AM 39.4586 -73.9681 220° Southwest 396 456 36,000 49 Climbing Washington Center
06:49AM 39.3744 -74.0611 221° Southwest 396 456 36,000  Level Washington Center
06:50AM 39.2903 -74.1542 221° Southwest 401 461 36,000  Level Washington Center
06:51AM 39.1997 -74.2525 220° Southwest 401 461 36,000 -50 Level Washington Center
06:52AM 39.1172 -74.3422 220° Southwest 401 461 35,900  Descending Washington Center
06:53AM 39.0306 -74.4347 220° Southwest 401 461 36,000  Climbing Washington Center
06:54AM 38.9461 -74.5267 220° Southwest 401 461 35,900  Descending Washington Center
06:55AM 38.8592 -74.6214 220° Southwest 401 461 36,000 50 Climbing Washington Center
06:56AM 38.7725 -74.7103 219° Southwest 401 461 36,000  Level Washington Center
06:57AM 38.6897 -74.8017 221° Southwest 401 461 36,000 -49 Level Washington Center
06:58AM 38.6047 -74.8931 220° Southwest 401 461 35,900 -50 Descending Washington Center
06:59AM 38.5178 -74.9842 219° Southwest 401 461 35,900 51 Level Washington Center
07:00AM 38.4306 -75.0750 219° Southwest 401 461 36,000 50 Climbing Washington Center
07:01AM 38.3392 -75.1550 214° Southwest 401 461 36,000  Level Washington Center
07:02AM 38.2475 -75.2217 210° Southwest 401 461 36,000 -50 Level Washington Center
07:03AM 38.1456 -75.2881 207° Southwest 412 474 35,900  Descending Washington Center
07:04AM 38.0436 -75.3517 206° Southwest 412 474 36,000 50 Climbing Washington Center
07:05AM 37.9394 -75.4181 207° Southwest 412 474 36,000 -51 Level Washington Center
07:06AM 37.8353 -75.4839 207° Southwest 412 474 35,900 -50 Descending Washington Center
07:07AM 37.7331 -75.5497 207° Southwest 417 480 35,900 50 Level Washington Center
07:08AM 37.6289 -75.6153 206° Southwest 417 480 36,000 50 Climbing Washington Center
07:09AM 37.5225 -75.6808 206° Southwest 422 486 36,000  Level Washington Center
07:10AM 37.4158 -75.7486 207° Southwest 422 486 36,000 -50 Level Washington Center
07:11AM 37.3094 -75.8139 206° Southwest 427 491 35,900  Descending Washington Center
07:12AM 37.2031 -75.8814 207° Southwest 427 491 36,000 50 Climbing Washington Center
07:13AM 37.0986 -75.9461 206° Southwest 427 491 36,000 -50 Level Washington Center
07:14AM 36.9939 -76.0106 206° Southwest 427 491 35,900  Descending Washington Center
07:15AM 36.8728 -76.0775 204° Southwest 432 497 36,000 50 Climbing Washington Center
07:16AM 36.7681 -76.1442 207° Southwest 432 497 36,000  Level Washington Center
07:17AM 36.6572 -76.2081 205° Southwest 432 497 36,000  Level Washington Center
07:18AM 36.5464 -76.2539 198° South 427 491 36,000 -49 Level Washington Center
07:19AM 36.4378 -76.3044 201° Southwest 427 491 35,900 -51 Descending Washington Center
07:20AM 36.3247 -76.3525 199° South 427 491 35,900 51 Level Washington Center
07:21AM 36.2117 -76.4003 199° South 427 491 36,000 50 Climbing Washington Center
07:22AM 36.1008 -76.4506 200° South 427 491 36,000  Level Washington Center
07:23AM 35.9878 -76.4981 199° South 427 491 36,000  Level Washington Center
07:24AM 35.8789 -76.5456 199° South 427 491 36,000  Level Washington Center
07:25AM 35.7658 -76.5981 201° Southwest 427 491 36,000  Level Washington Center
07:26AM 35.6528 -76.6428 198° South 427 491 36,000  Level Washington Center
07:27AM 35.5417 -76.6897 199° South 427 491 36,000 -49 Level Washington Center
07:28AM 35.4328 -76.7367 199° South 427 491 35,900  Descending Washington Center
07:29AM 35.3342 -76.7836 201° Southwest 427 491 36,000 50 Climbing Washington Center
07:30AM 35.2211 -76.8303 199° South 427 491 36,000  Level Washington Center
07:31AM 35.1100 -76.8794 200° South 432 497 36,000  Level Washington Center
07:32AM 34.9989 -76.9283 200° South 427 491 36,000  Level Washington Center
07:33AM 34.8858 -76.9769 199° South 432 497 36,000 -50 Level Washington Center
07:34AM 34.7747 -77.0233 199° South 432 497 35,900  Descending Washington Center
07:35AM 34.6614 -77.0692 198° South 432 497 36,000 50 Climbing Washington Center
07:36AM 34.5481 -77.1200 200° South 432 497 36,000  Level Washington Center
07:37AM 34.4283 -77.1708 199° South 432 497 36,000  Level Washington Center
07:38AM 34.3153 -77.2164 198° South 432 497 36,000  Level Washington Center
07:39AM 34.2039 -77.2644 200° South 432 497 36,000  Level Washington Center
07:41AM 33.9614 -77.3644 199° South 421 484 36,000  Level Jacksonville Center
07:42AM 33.8467 -77.4117 199° South 426 490 36,000  Level Jacksonville Center
07:43AM 33.7361 -77.4586 199° South 426 490 36,000 -50 Level Jacksonville Center
07:44AM 33.6211 -77.5031 198° South 426 490 35,900  Descending Jacksonville Center
07:45AM 33.5083 -77.5497 199° South 426 490 36,000 50 Climbing Jacksonville Center
07:46AM 33.3936 -77.5989 200° South 436 502 36,000  Level Jacksonville Center
07:47AM 33.2808 -77.6453 199° South 436 502 36,000  Level Jacksonville Center
07:48AM 33.1658 -77.6919 199° South 436 502 36,000  Level Jacksonville Center
07:49AM 33.0508 -77.7381 199° South 436 502 36,000  Level Jacksonville Center
07:50AM 32.9381 -77.7842 199° South 436 502 36,000  Level Jacksonville Center
07:51AM 32.8372 -77.8222 198° South 436 502 36,000  Level Jacksonville Center
07:52AM 32.7203 -77.8731 200° South 436 502 36,000  Level Jacksonville Center
07:53AM 32.6072 -77.9189 199° South 441 507 36,000 -50 Level Jacksonville Center
07:54AM 32.4942 -77.9619 198° South 435 501 35,900  Descending Jacksonville Center
07:55AM 32.3811 -78.0075 199° South 435 501 36,000 50 Climbing Jacksonville Center
07:56AM 32.2661 -78.0553 199° South 440 506 36,000  Level Jacksonville Center
07:57AM 32.1550 -78.0981 198° South 435 501 36,000 -49 Level Jacksonville Center
07:58AM 32.0397 -78.1408 197° South 435 501 35,900  Descending Jacksonville Center
07:59AM 31.9267 -78.1858 199° South 435 501 36,000 51 Climbing Jacksonville Center
08:00AM 31.8136 -78.2356 200° South 435 501 36,000  Level Jacksonville Center
08:01AM 31.6864 -78.2908 200° South 445 512 36,000  Level Jacksonville Center
08:02AM 31.5792 -78.3278 196° South 425 489 36,000  Level Jacksonville Center
08:03AM 31.4597 -78.3775 200° South 447 514 36,000  Level Jacksonville Center
08:04AM 31.3464 -78.4194 198° South 441 507 36,000  Level Jacksonville Center
08:05AM 31.2314 -78.4711 201° Southwest 429 494 36,000  Level Jacksonville Center
08:06AM 31.1219 -78.5078 196° South 429 494 36,000  Level Jacksonville Center
08:07AM 31.0089 -78.5542 199° South 434 499 36,000  Level Jacksonville Center
08:08AM 30.9100 -78.5903 197° South 426 490 36,000  Level Jacksonville Center
08:09AM 30.7967 -78.6339 198° South 421 484 36,000  Level Jacksonville Center
08:10AM 30.6872 -78.6753 198° South 421 484 36,000  Level Jacksonville Center
08:11AM 30.5781 -78.7211 200° South 422 486 36,000  Level Jacksonville Center
08:12AM 30.5033 -78.7453 196° South 428 493 36,000 -63 Level Miami Center
08:13AM 30.3903 -78.7839 196° South 413 475 35,900  Descending Miami Center
08:14AM 30.2669 -78.8106 191° South 427 491 36,000  Climbing Miami Center
08:15AM 30.1542 -78.8372 192° South 439 505 35,900 -50 Descending Miami Center
08:16AM 30.0392 -78.8639 191° South 428 493 35,900  Level Miami Center
08:17AM 29.9364 -78.8956 195° South 428 493 35,900  Level Miami Center
08:18AM 29.8194 -78.9197 190° South 438 504 35,900 -450 Level Miami Center
08:19AM 29.6919 -78.9364 186° South 438 504 35,000 -950 Descending Miami Center
08:20AM 29.5850 -78.9725 196° South 432 497 34,000 -500 Descending Miami Center
08:21AM 29.4658 -78.9986 191° South 432 497 34,000  Level Miami Center
08:22AM 29.3444 -79.0203 189° South 432 497 34,000  Level Miami Center
08:23AM 29.2292 -79.0489 192° South 438 504 34,000  Level Miami Center
08:24AM 29.1142 -79.0775 192° South 437 503 34,000 -50 Level Miami Center
08:25AM 29.0011 -79.1036 191° South 430 495 33,900 -50 Descending Miami Center
08:26AM 28.8836 -79.1297 191° South 430 495 33,900 50 Level Miami Center
08:27AM 28.7686 -79.1558 191° South 430 495 34,000 50 Climbing Miami Center
08:28AM 28.6514 -79.1794 190° South 425 489 34,000 -400 Level Miami Center
08:29AM 28.5339 -79.2053 191° South 431 496 33,200 -900 Descending Miami Center
08:30AM 28.4144 -79.2358 193° South 431 496 32,200 -1,000 Descending Miami Center
08:31AM 28.3072 -79.2950 206° Southwest 431 496 31,200 -1,550 Descending Miami Center
08:32AM 28.1914 -79.3489 202° Southwest 443 510 29,100 -2,250 Descending Miami Center
08:33AM 28.0797 -79.4053 204° Southwest 443 510 26,700 -2,400 Descending Miami Center
08:34AM 27.9597 -79.4661 204° Southwest 443 510 24,300 -2,300 Descending Miami Center
08:35AM 27.8628 -79.5178 205° Southwest 436 502 22,100 -2,450 Descending Miami Center
08:36AM 27.7447 -79.5739 203° Southwest 419 482 19,400 -2,450 Descending Miami Center
08:37AM 27.6436 -79.6253 204° Southwest 412 474 17,200 -2,150 Descending Miami Center
08:38AM 27.5444 -79.6744 204° Southwest 402 463 15,100 -2,100 Descending Miami Center
08:39AM 27.4600 -79.7169 204° Southwest 380 437 13,000 -2,000 Descending Miami Center
08:40AM 27.3694 -79.7614 204° Southwest 363 418 11,100 -1,450 Descending Miami Center
08:41AM 27.2828 -79.8061 205° Southwest 334 384 10,100 -950 Descending Miami Center
08:42AM 27.2153 -79.8392 204° Southwest 294 338 9,200 -1,000 Descending Miami Center
08:43AM 27.1478 -79.8725 204° Southwest 275 316 8,100 -1,300 Descending Miami Center
08:44AM 27.0844 -79.9083 207° Southwest 275 316 6,600 -1,500 Descending Miami Center
08:45AM 27.0083 -79.9506 206° Southwest 282 325 5,100 -1,300 Descending Miami Center
08:46AM 26.9450 -79.9908 210° Southwest 268 308 4,000 -550 Descending Miami Center
08:47AM 26.8875 -80.0406 218° Southwest 262 302 4,000  Level Miami Center
08:48AM 26.8364 -80.0833 217° Southwest 262 302 4,000  Level Miami Center
08:50AM 26.6832 -80.0956 265° West  Level Estimated
08:57AM 26.6832 -80.0956 110° East  Level Estimated
08:58AM 26.6832 -80.0956 110° East  Level Estimated
08:59AM 26.6832 -80.0956 110° East  Level Estimated
09:00AM 26.6832 -80.0956 110° East  Level Estimated
09:01AM 26.6832 -80.0956 110° East  Level Estimated
09:02AM 26.6832 -80.0956 110° East  Level Estimated
09:03AM 26.6832 -80.0956 110° East  Level Estimated
09:04AM 26.6832 -80.0956 110° East  Level Estimated